Time;durP1;ratioP1;P1;durP2;ratioP2;P2;SDS_P1;SDS_P2;PMS_P1;PMS_P2;Temp;Humidity;BMP_temperature;BMP_pressure;BME280_temperature;BME280_humidity;BME280_pressure;Samples;Min_cycle;Max_cycle;Signal;HPM_P1;HPM_P2
2023/02/21 02:15:33;;;;;;;20.30;3.70;;;3.50;99.90;;;;;;4993113;28;20055;-66
2023/02/21 02:18:17;;;;;;;20.15;3.38;;;3.50;99.90;;;;;;4956160;28;20449;-67
2023/02/21 02:21:21;;;;;;;17.20;3.85;;;3.50;99.90;;;;;;4964463;28;21190;-66
2023/02/21 02:24:16;;;;;;;14.30;4.03;;;3.50;99.90;;;;;;4981245;28;20451;-68
2023/02/21 02:27:10;;;;;;;17.63;2.80;;;3.50;99.90;;;;;;4976859;28;20049;-68
2023/02/21 02:29:58;;;;;;;16.98;4.68;;;3.60;99.90;;;;;;4955115;28;20051;-66
2023/02/21 02:32:49;;;;;;;10.15;2.85;;;3.50;99.90;;;;;;4989282;28;20062;-67
2023/02/21 02:35:23;;;;;;;9.73;3.30;;;3.50;99.90;;;;;;4954903;28;20505;-66
2023/02/21 02:38:05;;;;;;;14.15;3.08;;;3.50;99.90;;;;;;4958024;28;20149;-67
2023/02/21 02:40:50;;;;;;;20.83;3.40;;;3.50;99.90;;;;;;4983822;28;20047;-66
2023/02/21 02:43:51;;;;;;;13.48;4.00;;;3.50;99.90;;;;;;4953130;28;20062;-66
2023/02/21 02:46:24;;;;;;;15.75;2.97;;;3.50;99.90;;;;;;4956765;28;20130;-67
2023/02/21 02:48:58;;;;;;;17.10;4.40;;;3.50;99.90;;;;;;4985925;28;20133;-67
2023/02/21 02:51:26;;;;;;;9.88;3.05;;;3.50;99.90;;;;;;4959624;28;20450;-65
2023/02/21 02:53:57;;;;;;;20.48;3.65;;;3.50;99.90;;;;;;4955899;28;20106;-65
2023/02/21 02:56:27;;;;;;;17.95;3.63;;;3.50;99.90;;;;;;4986961;28;20057;-68
2023/02/21 02:59:05;;;;;;;14.90;3.65;;;3.50;99.90;;;;;;4986356;28;20050;-67
2023/02/21 03:01:47;;;;;;;14.65;3.00;;;3.50;99.90;;;;;;4952698;28;20047;-66
2023/02/21 03:05:05;;;;;;;11.18;3.00;;;3.50;99.90;;;;;;4959058;28;20051;-68
2023/02/21 03:07:42;;;;;;;17.38;3.45;;;3.50;99.90;;;;;;4983306;28;20083;-66
2023/02/21 03:10:22;;;;;;;18.65;3.13;;;3.50;99.90;;;;;;4957630;28;20055;-66
2023/02/21 03:13:05;;;;;;;16.58;3.58;;;3.50;99.90;;;;;;4954511;28;20062;-67
2023/02/21 03:15:43;;;;;;;18.23;3.28;;;3.50;99.90;;;;;;4978872;28;20054;-67
2023/02/21 03:18:29;;;;;;;9.48;3.25;;;3.60;99.90;;;;;;4979464;28;20053;-70
2023/02/21 03:20:58;;;;;;;19.58;3.80;;;3.60;99.90;;;;;;4980685;28;20073;-68
2023/02/21 03:23:28;;;;;;;12.25;4.63;;;3.60;99.90;;;;;;4979482;28;20054;-69
2023/02/21 03:26:02;;;;;;;14.45;2.75;;;3.60;99.90;;;;;;4973914;28;20046;-66
2023/02/21 03:28:32;;;;;;;19.65;2.90;;;3.60;99.90;;;;;;5009518;28;20105;-69
2023/02/21 03:31:00;;;;;;;5.88;2.33;;;3.60;99.90;;;;;;4978683;28;20046;-65
2023/02/21 03:33:30;;;;;;;12.23;2.67;;;3.60;99.90;;;;;;4985404;28;20050;-65
2023/02/21 03:35:59;;;;;;;9.32;2.22;;;3.50;99.90;;;;;;4975637;28;20046;-67
2023/02/21 03:38:28;;;;;;;13.43;3.42;;;3.50;99.90;;;;;;4975780;28;20061;-66
2023/02/21 03:40:55;;;;;;;8.57;1.77;;;3.50;99.90;;;;;;4972732;28;20049;-66
2023/02/21 03:43:22;;;;;;;10.93;2.90;;;3.40;99.90;;;;;;4975389;28;20413;-66
2023/02/21 03:45:55;;;;;;;6.07;1.50;;;3.40;99.90;;;;;;4967524;28;20055;-67
2023/02/21 03:48:23;;;;;;;6.03;1.75;;;3.40;99.90;;;;;;4953201;28;20070;-67
2023/02/21 03:51:06;;;;;;;5.75;1.80;;;3.40;99.90;;;;;;4959503;28;20678;-66
2023/02/21 03:53:35;;;;;;;3.17;0.80;;;3.30;99.90;;;;;;4966913;28;20043;-65
2023/02/21 03:56:03;;;;;;;7.68;1.77;;;3.30;99.90;;;;;;4960957;28;20901;-67
2023/02/21 03:58:46;;;;;;;4.45;1.40;;;3.30;99.90;;;;;;4955132;28;20044;-66
2023/02/21 04:01:14;;;;;;;4.03;1.48;;;3.30;99.90;;;;;;4953562;28;20157;-68
2023/02/21 04:03:42;;;;;;;4.63;0.98;;;3.30;99.90;;;;;;4984265;28;20074;-66
2023/02/21 04:06:08;;;;;;;2.53;0.80;;;3.30;99.90;;;;;;4951988;28;20054;-67
2023/02/21 04:08:36;;;;;;;4.20;1.05;;;3.30;99.90;;;;;;4955538;28;20055;-67
2023/02/21 04:11:03;;;;;;;3.65;0.85;;;3.30;99.90;;;;;;4958766;28;20097;-67
2023/02/21 04:13:33;;;;;;;1.70;0.52;;;3.30;99.90;;;;;;4967195;28;20058;-67
2023/02/21 04:16:01;;;;;;;4.30;0.80;;;3.20;99.90;;;;;;4959245;28;20098;-70
2023/02/21 04:21:24;;;;;;;1.48;0.50;;;3.20;99.90;;;;;;4981853;28;20106;-66
2023/02/21 04:23:54;;;;;;;0.82;0.50;;;3.20;99.90;;;;;;4956427;28;20386;-66
2023/02/21 04:26:23;;;;;;;4.50;0.77;;;3.10;99.90;;;;;;4956562;28;20053;-67
2023/02/21 04:28:52;;;;;;;2.58;0.60;;;3.10;99.90;;;;;;4955223;28;20129;-66
2023/02/21 04:31:19;;;;;;;1.55;0.45;;;3.00;99.90;;;;;;4953442;28;20485;-67
2023/02/21 04:33:47;;;;;;;2.17;0.57;;;3.00;99.90;;;;;;4954043;28;20789;-66
2023/02/21 04:36:21;;;;;;;1.90;0.90;;;3.00;99.90;;;;;;4983695;28;20051;-67
2023/02/21 04:39:14;;;;;;;0.88;0.55;;;2.90;99.90;;;;;;4967125;28;20055;-69
2023/02/21 04:41:42;;;;;;;1.70;0.40;;;2.80;99.90;;;;;;4951802;28;20047;-67
2023/02/21 04:44:09;;;;;;;1.85;0.40;;;2.80;99.90;;;;;;4988640;28;20076;-66
2023/02/21 04:46:36;;;;;;;3.60;0.93;;;2.80;99.90;;;;;;4983248;28;20055;-70
2023/02/21 04:49:04;;;;;;;1.88;0.43;;;2.80;99.90;;;;;;4954459;28;20106;-68
2023/02/21 04:51:31;;;;;;;2.78;0.70;;;2.70;99.90;;;;;;4951039;28;20054;-68
2023/02/21 04:53:58;;;;;;;8.20;0.75;;;2.70;99.90;;;;;;4945714;28;20058;-68
2023/02/21 04:56:26;;;;;;;2.47;0.30;;;2.70;99.90;;;;;;4951358;28;20058;-66
2023/02/21 04:58:54;;;;;;;1.77;0.50;;;2.70;99.90;;;;;;4957896;28;20488;-66
2023/02/21 05:01:25;;;;;;;3.22;0.50;;;2.70;99.90;;;;;;4954239;28;20166;-70
2023/02/21 05:03:52;;;;;;;5.10;0.82;;;2.70;99.90;;;;;;4949142;28;20055;-66
2023/02/21 05:06:21;;;;;;;1.75;0.40;;;2.70;99.90;;;;;;4959862;28;20106;-68
2023/02/21 05:08:48;;;;;;;4.63;0.40;;;2.70;99.90;;;;;;4956178;28;20047;-65
2023/02/21 05:11:18;;;;;;;1.95;0.40;;;2.70;99.90;;;;;;4954102;28;20082;-66
2023/02/21 05:13:46;;;;;;;0.55;0.30;;;2.70;99.90;;;;;;4956843;28;20528;-66
2023/02/21 05:16:16;;;;;;;1.55;0.73;;;2.60;99.90;;;;;;4957692;28;20146;-68
2023/02/21 05:18:46;;;;;;;1.33;0.35;;;2.70;99.90;;;;;;4959598;28;20051;-67
2023/02/21 06:45:35;;;;;;;6.93;1.85;;;1.90;99.90;;;;;;2168173;23;20127;-72
2023/02/21 06:48:02;;;;;;;1.85;0.98;;;1.90;99.90;;;;;;4949335;28;20141;-73
2023/02/21 06:50:29;;;;;;;1.13;0.80;;;2.00;99.90;;;;;;4947818;28;20051;-66
2023/02/21 06:52:56;;;;;;;2.03;1.15;;;2.00;99.90;;;;;;4954373;28;20042;-68
2023/02/21 06:55:23;;;;;;;1.25;1.15;;;2.00;99.90;;;;;;4951857;28;20173;-66
2023/02/21 06:57:51;;;;;;;1.95;1.08;;;2.00;99.90;;;;;;4951596;28;20165;-68
2023/02/21 07:00:18;;;;;;;1.80;1.40;;;2.00;99.90;;;;;;4951355;28;20423;-67
2023/02/21 07:02:45;;;;;;;3.95;1.60;;;2.10;99.90;;;;;;4952920;28;20047;-67
2023/02/21 07:05:12;;;;;;;1.30;1.15;;;2.10;99.90;;;;;;4950946;28;20082;-67
2023/02/21 07:07:39;;;;;;;4.45;2.20;;;2.10;99.90;;;;;;4949534;28;20369;-67
2023/02/21 07:10:06;;;;;;;7.35;1.80;;;2.10;99.90;;;;;;4954338;28;20043;-67
2023/02/21 07:12:33;;;;;;;3.15;1.35;;;2.10;99.90;;;;;;4950556;28;20059;-68
2023/02/21 07:15:00;;;;;;;2.17;1.15;;;2.10;99.90;;;;;;4951777;28;20066;-68
2023/02/21 07:17:27;;;;;;;1.83;1.13;;;2.20;99.90;;;;;;4951043;28;20074;-67
2023/02/21 07:19:54;;;;;;;1.80;1.38;;;2.10;99.90;;;;;;4953866;28;20774;-66
2023/02/21 07:22:25;;;;;;;4.32;1.52;;;2.20;99.90;;;;;;4950231;28;20047;-68
2023/02/21 07:24:52;;;;;;;2.90;1.40;;;2.20;99.90;;;;;;4953381;28;20058;-67
2023/02/21 07:27:20;;;;;;;3.80;1.58;;;2.20;99.90;;;;;;4951526;28;20038;-67
2023/02/21 07:29:47;;;;;;;2.45;1.33;;;2.20;99.90;;;;;;4953630;28;20586;-67
2023/02/21 07:32:15;;;;;;;5.93;1.27;;;2.30;99.90;;;;;;4953896;28;20047;-68
2023/02/21 07:34:43;;;;;;;3.20;1.50;;;2.40;99.90;;;;;;4954218;28;20054;-72
2023/02/21 07:37:10;;;;;;;5.30;2.10;;;2.40;99.90;;;;;;4955230;28;20707;-66
2023/02/21 07:39:37;;;;;;;2.08;1.38;;;2.40;99.90;;;;;;4951186;28;20468;-66
2023/02/21 07:42:04;;;;;;;5.03;1.40;;;2.40;99.90;;;;;;4953847;28;20142;-67
2023/02/21 07:44:31;;;;;;;6.22;1.02;;;2.40;99.90;;;;;;4952571;28;20133;-67
2023/02/21 07:46:58;;;;;;;5.35;1.00;;;2.40;99.90;;;;;;4955440;28;20047;-66
2023/02/21 07:49:25;;;;;;;8.73;2.03;;;2.50;99.90;;;;;;4950975;28;20057;-69
2023/02/21 07:51:52;;;;;;;3.10;1.42;;;2.50;99.90;;;;;;4952521;28;20640;-67
2023/02/21 07:54:19;;;;;;;10.80;1.80;;;2.50;99.90;;;;;;4952199;28;20268;-66
2023/02/21 07:56:48;;;;;;;8.50;1.65;;;2.60;99.90;;;;;;4952491;28;20229;-67
2023/02/21 07:59:15;;;;;;;5.43;1.55;;;2.60;99.90;;;;;;4952785;28;20065;-69
2023/02/21 08:01:42;;;;;;;14.02;2.17;;;2.70;99.90;;;;;;4951476;28;20149;-68
2023/02/21 08:04:09;;;;;;;8.63;2.05;;;2.70;99.90;;;;;;4954943;28;20050;-68
2023/02/21 08:06:36;;;;;;;1.98;1.20;;;2.80;99.90;;;;;;4954607;28;20451;-66
2023/02/21 08:09:04;;;;;;;6.97;1.48;;;2.80;99.90;;;;;;4954189;28;20062;-67
2023/02/21 08:11:32;;;;;;;8.93;1.55;;;2.80;99.90;;;;;;4947897;28;20141;-69
2023/02/21 08:13:59;;;;;;;4.88;1.27;;;2.90;99.90;;;;;;4954954;28;20098;-66
2023/02/21 08:16:27;;;;;;;10.57;1.98;;;2.90;99.90;;;;;;4953821;28;20046;-67
2023/02/21 08:18:54;;;;;;;1.83;0.90;;;2.90;99.90;;;;;;4954346;28;20146;-68
2023/02/21 08:21:21;;;;;;;7.50;2.58;;;2.90;99.90;;;;;;4951115;28;20063;-67
2023/02/21 08:23:47;;;;;;;4.63;1.30;;;3.00;99.90;;;;;;4968128;28;20074;-67
2023/02/21 08:26:15;;;;;;;0.82;0.77;;;3.00;99.90;;;;;;4950351;28;20046;-67
2023/02/21 08:28:41;;;;;;;3.97;1.67;;;3.00;99.90;;;;;;4953767;28;20043;-68
2023/02/21 08:31:08;;;;;;;6.90;1.58;;;3.10;99.90;;;;;;4953783;28;20057;-67
2023/02/21 08:33:35;;;;;;;3.90;1.77;;;3.10;99.90;;;;;;4954256;28;20090;-69
2023/02/21 08:36:02;;;;;;;4.03;1.33;;;3.20;99.90;;;;;;4953870;28;20789;-67
2023/02/21 08:38:29;;;;;;;2.17;0.70;;;3.30;99.90;;;;;;4953791;28;20493;-67
2023/02/21 08:40:56;;;;;;;6.13;1.27;;;3.30;99.90;;;;;;4957194;28;20051;-68
2023/02/21 08:43:24;;;;;;;10.75;1.58;;;3.30;99.90;;;;;;4951675;28;20220;-66
2023/02/21 08:45:50;;;;;;;3.00;1.23;;;3.30;99.90;;;;;;4956869;28;20061;-67
2023/02/21 08:48:17;;;;;;;2.00;1.20;;;3.40;99.90;;;;;;4956660;28;20619;-68
2023/02/21 08:50:44;;;;;;;6.35;1.48;;;3.50;99.90;;;;;;4958097;28;20548;-66
2023/02/21 08:53:13;;;;;;;5.72;1.42;;;3.50;99.90;;;;;;4957605;28;20249;-66
2023/02/21 08:55:41;;;;;;;8.00;1.67;;;3.60;99.90;;;;;;4958767;28;20494;-68
2023/02/21 08:58:10;;;;;;;8.48;2.33;;;3.50;99.90;;;;;;4954310;28;20047;-69
2023/02/21 09:00:38;;;;;;;4.53;1.50;;;3.50;99.90;;;;;;4958937;28;20055;-66
2023/02/21 09:03:05;;;;;;;6.10;1.60;;;3.50;99.90;;;;;;4957043;28;20154;-67
2023/02/21 09:05:31;;;;;;;4.30;2.53;;;3.60;99.90;;;;;;4955402;28;20815;-66
2023/02/21 09:08:00;;;;;;;6.25;1.55;;;3.60;99.90;;;;;;4959540;28;20051;-68
2023/02/21 09:10:29;;;;;;;13.63;1.85;;;3.70;99.90;;;;;;4960075;28;20046;-67
2023/02/21 09:12:56;;;;;;;10.05;2.20;;;3.80;99.90;;;;;;4959360;28;20062;-69
2023/02/21 09:15:23;;;;;;;27.58;3.63;;;3.80;99.90;;;;;;4953862;28;20043;-66
2023/02/21 09:17:51;;;;;;;16.05;3.15;;;3.80;99.90;;;;;;4957759;28;20149;-66
2023/02/21 09:20:22;;;;;;;6.25;1.70;;;3.80;99.90;;;;;;4956998;28;20071;-67
2023/02/21 09:22:49;;;;;;;5.25;2.35;;;3.80;99.90;;;;;;4959490;28;20082;-67
2023/02/21 09:25:21;;;;;;;3.17;2.55;;;3.70;99.90;;;;;;4955241;28;20066;-68
2023/02/21 09:27:48;;;;;;;4.65;1.60;;;3.70;99.90;;;;;;4959244;28;20079;-67
2023/02/21 09:30:22;;;;;;;5.53;2.10;;;3.60;99.90;;;;;;4956982;28;20051;-68
2023/02/21 09:32:49;;;;;;;4.47;1.65;;;3.70;99.90;;;;;;4957064;28;20439;-66
2023/02/21 09:35:17;;;;;;;2.92;1.95;;;3.70;99.90;;;;;;4958013;28;20073;-66
2023/02/21 09:37:45;;;;;;;4.72;1.58;;;3.70;99.90;;;;;;4958298;28;20055;-68
2023/02/21 09:40:24;;;;;;;5.13;1.98;;;3.80;99.90;;;;;;4957505;28;20043;-67
2023/02/21 09:42:53;;;;;;;5.47;1.48;;;3.80;99.90;;;;;;4958577;28;20110;-66
2023/02/21 09:45:21;;;;;;;3.40;2.20;;;3.90;99.90;;;;;;4954671;28;20066;-68
2023/02/21 09:47:54;;;;;;;5.55;1.77;;;4.00;99.90;;;;;;4963440;28;20057;-66
2023/02/21 09:50:29;;;;;;;9.15;2.58;;;4.00;99.90;;;;;;4957383;28;20409;-66
2023/02/21 09:52:57;;;;;;;14.88;2.88;;;4.10;99.90;;;;;;4959458;28;20070;-67
2023/02/21 09:55:32;;;;;;;6.22;1.92;;;4.10;99.90;;;;;;4957242;28;20137;-66
2023/02/21 09:57:59;;;;;;;7.43;2.75;;;4.10;99.90;;;;;;4971554;28;20047;-66
2023/02/21 10:00:36;;;;;;;3.22;1.75;;;4.20;99.90;;;;;;4957453;28;20078;-68
2023/02/21 10:03:42;;;;;;;6.90;1.90;;;4.20;99.90;;;;;;4953383;28;20697;-67
2023/02/21 10:06:41;;;;;;;4.72;2.13;;;4.20;99.90;;;;;;4954123;28;20058;-66
2023/02/21 10:09:27;;;;;;;7.68;1.35;;;4.10;99.90;;;;;;4956838;28;20440;-66
2023/02/21 10:12:25;;;;;;;1.10;1.00;;;4.10;99.90;;;;;;4957209;28;20054;-66
2023/02/21 10:14:58;;;;;;;2.97;1.15;;;4.00;99.90;;;;;;4957123;28;20061;-66
2023/02/21 10:17:48;;;;;;;2.78;1.20;;;3.90;99.90;;;;;;4953146;28;21433;-66
2023/02/21 10:20:30;;;;;;;2.25;1.48;;;3.90;99.90;;;;;;4955679;28;20055;-69
2023/02/21 10:22:59;;;;;;;4.13;2.15;;;3.90;99.90;;;;;;4955141;28;20051;-66
2023/02/21 10:25:32;;;;;;;2.28;1.52;;;3.80;99.90;;;;;;4954138;28;20071;-66
2023/02/21 10:27:59;;;;;;;3.63;2.00;;;3.80;99.90;;;;;;4955341;28;20384;-66
2023/02/21 10:30:33;;;;;;;3.58;2.65;;;3.70;99.90;;;;;;4954762;28;20129;-66
2023/02/21 10:33:05;;;;;;;2.92;1.67;;;3.60;99.90;;;;;;4954412;28;20113;-68
2023/02/21 10:35:33;;;;;;;2.47;1.73;;;3.50;99.90;;;;;;4936496;28;20354;-68
2023/02/21 10:38:03;;;;;;;2.50;1.73;;;3.40;99.90;;;;;;4956425;28;20054;-66
2023/02/21 10:40:44;;;;;;;3.25;1.98;;;3.40;99.90;;;;;;4958270;28;20056;-66
2023/02/21 10:43:22;;;;;;;3.67;2.00;;;3.30;99.90;;;;;;4956267;28;20130;-66
2023/02/21 10:46:00;;;;;;;3.50;1.40;;;3.10;99.90;;;;;;4955547;28;20058;-66
2023/02/21 10:48:34;;;;;;;2.25;2.00;;;3.10;99.90;;;;;;4955344;28;20055;-67
2023/02/21 10:51:07;;;;;;;3.00;1.77;;;3.10;99.90;;;;;;4956425;28;20057;-66
2023/02/21 10:53:37;;;;;;;2.83;2.00;;;3.10;99.90;;;;;;4954627;28;20043;-65
2023/02/21 10:56:19;;;;;;;4.00;2.13;;;3.00;99.90;;;;;;4956556;28;20104;-66
2023/02/21 10:58:48;;;;;;;2.55;1.90;;;2.90;99.90;;;;;;4953783;28;20047;-67
2023/02/21 11:01:25;;;;;;;3.17;1.70;;;2.90;99.90;;;;;;4951926;28;20059;-68
2023/02/21 11:04:03;;;;;;;2.50;1.30;;;2.80;99.90;;;;;;4955860;28;20501;-71
2023/02/21 11:06:30;;;;;;;5.35;2.80;;;2.70;99.90;;;;;;4953528;28;20065;-67
2023/02/21 11:08:58;;;;;;;2.97;2.47;;;2.70;99.90;;;;;;4956143;28;20556;-67
2023/02/21 11:11:32;;;;;;;4.53;3.72;;;2.70;99.90;;;;;;4955635;28;20070;-67
2023/02/21 11:14:23;;;;;;;4.57;2.20;;;2.70;99.90;;;;;;4955864;28;20050;-66
2023/02/21 11:17:05;;;;;;;3.75;2.30;;;2.70;99.90;;;;;;4951668;28;20130;-66
2023/02/21 11:19:56;;;;;;;5.68;3.38;;;2.70;99.90;;;;;;4954754;28;20055;-66
2023/02/21 11:22:33;;;;;;;4.45;2.83;;;2.60;99.90;;;;;;4953315;28;20089;-68
2023/02/21 11:25:18;;;;;;;5.70;3.00;;;2.60;99.90;;;;;;4956637;28;20057;-67
2023/02/21 11:28:03;;;;;;;4.57;2.42;;;2.60;99.90;;;;;;4955837;28;20370;-66
2023/02/21 11:30:36;;;;;;;7.00;4.15;;;2.60;99.90;;;;;;4957170;28;20069;-67
2023/02/21 11:33:04;;;;;;;6.25;3.05;;;2.60;99.90;;;;;;4957623;28;20058;-68
2023/02/21 11:35:35;;;;;;;5.30;3.28;;;2.60;99.90;;;;;;4956117;28;20061;-67
2023/02/21 11:38:08;;;;;;;5.28;3.47;;;2.60;99.90;;;;;;4942501;28;20055;-66
2023/02/21 11:40:48;;;;;;;4.20;3.22;;;2.70;99.90;;;;;;4956423;28;20627;-69
2023/02/21 11:43:27;;;;;;;4.88;3.25;;;2.70;99.90;;;;;;4954729;28;20057;-67
2023/02/21 11:46:15;;;;;;;4.63;3.77;;;2.80;99.90;;;;;;4957786;28;20047;-65
2023/02/21 11:48:58;;;;;;;4.25;3.13;;;2.80;99.90;;;;;;4955913;28;20130;-67
2023/02/21 11:51:31;;;;;;;6.47;4.15;;;2.80;99.90;;;;;;4953309;28;20047;-66
2023/02/21 11:53:58;;;;;;;5.28;3.42;;;2.80;99.90;;;;;;4953187;28;20055;-65
2023/02/21 11:56:37;;;;;;;7.13;3.53;;;2.80;99.90;;;;;;4955768;28;20056;-66
2023/02/21 11:59:46;;;;;;;5.30;3.22;;;2.80;99.90;;;;;;4954477;28;20189;-64
2023/02/21 12:02:29;;;;;;;5.38;2.85;;;2.80;99.90;;;;;;4944489;28;20059;-65
2023/02/21 12:05:23;;;;;;;7.25;3.17;;;2.70;99.90;;;;;;4947430;28;20054;-67
2023/02/21 12:08:11;;;;;;;6.45;3.13;;;2.70;99.90;;;;;;4955477;28;20181;-66
2023/02/21 12:10:57;;;;;;;3.97;2.72;;;2.80;99.90;;;;;;4952506;28;20043;-65
2023/02/21 12:13:43;;;;;;;4.22;2.95;;;3.00;99.90;;;;;;4954574;28;20884;-67
2023/02/21 12:16:29;;;;;;;4.13;3.13;;;2.90;99.90;;;;;;4958767;28;20051;-65
2023/02/21 12:19:10;;;;;;;5.28;3.20;;;3.00;99.90;;;;;;4958465;28;20071;-65
2023/02/21 12:22:05;;;;;;;4.97;2.92;;;3.00;99.90;;;;;;4954866;28;20053;-66
2023/02/21 12:25:10;;;;;;;2.80;2.30;;;3.10;99.90;;;;;;4955826;28;20517;-66
2023/02/21 12:27:42;;;;;;;4.53;2.58;;;3.10;99.90;;;;;;4956814;28;20102;-66
2023/02/21 12:30:48;;;;;;;3.55;2.67;;;3.10;99.90;;;;;;4958556;28;20051;-66
2023/02/21 12:33:15;;;;;;;5.22;2.90;;;3.20;99.90;;;;;;4956823;28;20411;-67
2023/02/21 12:36:11;;;;;;;3.00;2.58;;;3.20;99.90;;;;;;4951053;28;20039;-65
2023/02/21 12:39:13;;;;;;;5.28;2.65;;;3.10;99.90;;;;;;4958691;28;20053;-66
2023/02/21 12:41:47;;;;;;;6.38;2.20;;;3.10;99.90;;;;;;4956904;28;20132;-66
2023/02/21 12:44:37;;;;;;;4.93;2.58;;;3.00;99.90;;;;;;4957480;28;20412;-65
2023/02/21 12:47:14;;;;;;;5.28;2.30;;;2.90;99.90;;;;;;4957766;28;20055;-67
2023/02/21 12:50:11;;;;;;;3.63;2.40;;;2.90;99.90;;;;;;4956123;28;20055;-66
2023/02/21 12:53:25;;;;;;;4.10;2.17;;;2.80;99.90;;;;;;4959837;28;20165;-66
2023/02/21 12:56:01;;;;;;;5.47;2.97;;;2.90;99.90;;;;;;4893440;29;20801;-65
2023/02/21 12:58:39;;;;;;;3.47;2.80;;;3.00;99.90;;;;;;4942707;28;20054;-66
2023/02/21 13:01:16;;;;;;;5.75;3.45;;;3.00;99.90;;;;;;4960011;28;20149;-65
2023/02/21 13:04:20;;;;;;;5.68;2.60;;;2.90;99.90;;;;;;4958397;28;20051;-66
2023/02/21 13:07:00;;;;;;;5.88;2.90;;;2.80;99.90;;;;;;4959748;28;20051;-66
2023/02/21 13:09:35;;;;;;;4.97;3.13;;;2.80;99.90;;;;;;4912365;28;20110;-66
2023/02/21 13:12:08;;;;;;;8.90;4.60;;;2.90;99.90;;;;;;4959023;28;20055;-65
2023/02/21 13:14:49;;;;;;;4.15;3.60;;;2.90;99.90;;;;;;4960032;28;20066;-65
2023/02/21 13:17:18;;;;;;;5.50;3.20;;;2.80;99.90;;;;;;4959900;28;20544;-66
2023/02/21 13:20:07;;;;;;;6.13;3.92;;;2.80;99.90;;;;;;4957742;28;20154;-66
2023/02/21 13:23:02;;;;;;;4.72;3.72;;;2.90;99.90;;;;;;4960932;28;20154;-65
2023/02/21 13:26:11;;;;;;;4.78;3.25;;;2.90;99.90;;;;;;4956004;28;20138;-65
2023/02/21 13:28:40;;;;;;;5.00;3.60;;;2.90;99.90;;;;;;4921105;28;20051;-67
2023/02/21 13:31:18;;;;;;;6.05;4.28;;;2.90;99.90;;;;;;4951395;28;20055;-65
2023/02/21 13:34:00;;;;;;;3.88;3.28;;;3.00;99.90;;;;;;4960657;28;20051;-65
2023/02/21 13:36:31;;;;;;;4.18;3.60;;;3.00;99.90;;;;;;4960437;28;20058;-65
2023/02/21 13:39:13;;;;;;;5.25;3.70;;;3.00;99.90;;;;;;4958606;28;20053;-65
2023/02/21 13:41:56;;;;;;;12.13;3.75;;;3.10;99.90;;;;;;4954933;28;20054;-66
2023/02/21 13:44:28;;;;;;;3.33;3.03;;;3.00;99.90;;;;;;4958080;28;20055;-65
2023/02/21 13:46:59;;;;;;;5.18;4.00;;;2.90;99.90;;;;;;4957670;28;20072;-67
2023/02/21 13:49:47;;;;;;;5.47;4.13;;;2.90;99.90;;;;;;4955095;28;20050;-65
2023/02/21 13:52:23;;;;;;;4.15;3.05;;;2.90;99.90;;;;;;4958270;28;20126;-65
2023/02/21 13:55:15;;;;;;;6.15;3.85;;;2.90;99.90;;;;;;4959140;28;20051;-67
2023/02/21 13:58:03;;;;;;;5.07;3.80;;;2.90;99.90;;;;;;4953638;28;20038;-65
2023/02/21 14:00:30;;;;;;;6.70;4.28;;;2.80;99.90;;;;;;4957882;28;20055;-67
2023/02/21 14:03:04;;;;;;;6.90;4.20;;;2.80;99.90;;;;;;4958221;28;20568;-68
2023/02/21 14:05:43;;;;;;;3.92;3.15;;;2.70;99.90;;;;;;4955082;28;20122;-66
2023/02/21 14:08:29;;;;;;;4.57;3.88;;;2.70;99.90;;;;;;4958713;28;20050;-65
2023/02/21 14:11:14;;;;;;;6.10;3.10;;;2.60;99.90;;;;;;4957596;28;20096;-69
2023/02/21 14:13:53;;;;;;;3.88;3.08;;;2.50;99.90;;;;;;4953654;28;20054;-65
2023/02/21 14:16:46;;;;;;;4.45;3.50;;;2.50;99.90;;;;;;4958759;28;20050;-67
2023/02/21 14:19:40;;;;;;;4.00;2.15;;;2.50;99.90;;;;;;4947328;28;20082;-65
2023/02/21 14:22:12;;;;;;;3.95;3.10;;;2.40;99.90;;;;;;4956785;28;20054;-67
2023/02/21 14:24:44;;;;;;;4.70;3.50;;;2.40;99.90;;;;;;4961481;28;20055;-64
2023/02/21 14:27:11;;;;;;;6.18;3.58;;;2.40;99.90;;;;;;4960004;28;20047;-65
2023/02/21 14:30:05;;;;;;;5.28;3.10;;;2.40;99.90;;;;;;4954635;28;20404;-65
2023/02/21 14:32:45;;;;;;;4.22;3.30;;;2.30;99.90;;;;;;4957271;28;20051;-66
2023/02/21 14:35:15;;;;;;;4.82;3.25;;;2.20;99.90;;;;;;4955187;28;20046;-67
2023/02/21 14:37:51;;;;;;;8.63;4.30;;;2.10;99.90;;;;;;4959384;28;20157;-65
2023/02/21 14:40:30;;;;;;;4.90;3.85;;;2.10;99.90;;;;;;4958978;28;20109;-65
2023/02/21 14:43:15;;;;;;;5.00;4.18;;;2.00;99.90;;;;;;4958399;28;20046;-65
2023/02/21 14:45:54;;;;;;;5.47;4.07;;;2.00;99.90;;;;;;4953526;28;20054;-67
2023/02/21 14:48:39;;;;;;;5.35;3.90;;;1.90;99.90;;;;;;4957887;28;20134;-65
2023/02/21 14:51:46;;;;;;;5.55;3.72;;;1.90;99.90;;;;;;4955779;28;20073;-66
2023/02/21 14:54:37;;;;;;;6.18;4.13;;;1.90;99.90;;;;;;4956563;28;20131;-66
2023/02/21 14:57:23;;;;;;;5.72;4.43;;;1.80;99.90;;;;;;4956601;28;20047;-66
2023/02/21 15:00:14;;;;;;;7.53;4.95;;;1.80;99.90;;;;;;4951266;28;20061;-67
2023/02/21 15:02:55;;;;;;;4.47;3.45;;;1.80;99.90;;;;;;4955852;28;20051;-67
2023/02/21 15:05:26;;;;;;;5.50;4.57;;;1.80;99.90;;;;;;4955450;28;20051;-67
2023/02/21 15:08:20;;;;;;;6.40;4.75;;;1.80;99.90;;;;;;4957039;28;20046;-66
2023/02/21 15:10:49;;;;;;;4.13;3.72;;;1.80;99.90;;;;;;4956873;28;20050;-66
2023/02/21 15:13:30;;;;;;;6.80;4.55;;;1.80;99.90;;;;;;4955098;28;20374;-67
2023/02/21 15:16:10;;;;;;;7.25;3.63;;;1.80;99.90;;;;;;4952208;28;20055;-65
2023/02/21 15:18:39;;;;;;;7.70;3.92;;;1.80;99.90;;;;;;4955198;28;20058;-67
2023/02/21 15:21:19;;;;;;;5.80;4.47;;;1.80;99.90;;;;;;4958988;28;20054;-65
2023/02/21 15:23:58;;;;;;;6.60;3.83;;;1.80;99.90;;;;;;4955046;28;20054;-67
2023/02/21 15:26:28;;;;;;;6.03;4.32;;;1.80;99.90;;;;;;4956727;28;20051;-66
2023/02/21 15:29:13;;;;;;;9.88;5.50;;;1.80;99.90;;;;;;4959698;28;20719;-65
2023/02/21 15:31:48;;;;;;;8.18;4.35;;;1.70;99.90;;;;;;4953980;28;20038;-67
2023/02/21 15:34:20;;;;;;;4.65;3.88;;;1.70;99.90;;;;;;4956621;28;20046;-65
2023/02/21 15:36:57;;;;;;;5.50;3.78;;;1.70;99.90;;;;;;4955889;28;20070;-67
2023/02/21 15:39:31;;;;;;;5.75;3.47;;;1.70;99.90;;;;;;4953426;28;20047;-67
2023/02/21 15:42:00;;;;;;;4.80;3.78;;;1.70;99.90;;;;;;4956122;28;20141;-66
2023/02/21 15:44:44;;;;;;;4.70;3.63;;;1.70;99.90;;;;;;4953603;28;20560;-66
2023/02/21 15:47:18;;;;;;;4.35;3.40;;;1.60;99.90;;;;;;4953306;28;20050;-67
2023/02/21 15:50:33;;;;;;;6.22;3.80;;;1.50;99.90;;;;;;4951376;28;20065;-67
2023/02/21 15:53:29;;;;;;;3.40;2.90;;;1.40;99.90;;;;;;4949939;28;21528;-69
2023/02/21 15:56:16;;;;;;;5.45;3.30;;;1.20;99.90;;;;;;4949077;28;20052;-66
2023/02/21 15:59:07;;;;;;;5.15;4.60;;;1.10;99.90;;;;;;4955261;28;20469;-67
2023/02/21 16:01:34;;;;;;;5.78;4.70;;;1.00;99.90;;;;;;4955385;28;20047;-65
2023/02/21 16:04:35;;;;;;;4.95;3.58;;;1.00;99.90;;;;;;4952755;28;20062;-65
2023/02/21 16:07:06;;;;;;;6.22;3.78;;;1.00;99.90;;;;;;4937721;28;20047;-65
2023/02/21 16:09:34;;;;;;;5.00;3.40;;;1.00;99.90;;;;;;4955144;28;20043;-65
2023/02/21 16:12:10;;;;;;;5.72;4.15;;;1.00;99.90;;;;;;4956275;28;20066;-68
2023/02/21 16:14:54;;;;;;;5.07;3.40;;;1.00;99.90;;;;;;4955392;28;20125;-66
2023/02/21 16:17:36;;;;;;;7.28;4.07;;;1.00;99.90;;;;;;4954683;28;20043;-68
2023/02/21 16:20:18;;;;;;;6.80;4.07;;;1.00;99.90;;;;;;4954566;28;21060;-67
2023/02/21 16:22:50;;;;;;;4.30;3.42;;;1.00;99.90;;;;;;4954974;28;20047;-67
2023/02/21 16:25:33;;;;;;;3.90;3.45;;;1.00;99.90;;;;;;4938500;28;20089;-66
2023/02/21 16:28:01;;;;;;;5.05;4.07;;;1.10;99.90;;;;;;4955257;28;20043;-67
2023/02/21 16:30:30;;;;;;;5.28;4.25;;;1.10;99.90;;;;;;4955198;28;20134;-68
2023/02/21 16:33:02;;;;;;;6.30;4.53;;;1.10;99.90;;;;;;4954900;28;20077;-68
2023/02/21 16:35:30;;;;;;;7.63;4.82;;;1.20;99.90;;;;;;4950919;28;20058;-67
2023/02/21 16:37:59;;;;;;;7.43;4.10;;;1.10;99.90;;;;;;4956188;28;20059;-66
2023/02/21 16:40:29;;;;;;;7.05;4.40;;;1.20;99.90;;;;;;4953980;28;20173;-66
2023/02/21 16:42:57;;;;;;;9.77;5.22;;;1.20;99.90;;;;;;4955839;28;20563;-66
2023/02/21 16:45:24;;;;;;;4.45;3.53;;;1.20;99.90;;;;;;4953600;28;20062;-67
2023/02/21 16:47:57;;;;;;;8.63;4.32;;;1.10;99.90;;;;;;4954895;28;20166;-67
2023/02/21 16:50:34;;;;;;;6.68;4.55;;;1.20;99.90;;;;;;4954990;28;20074;-65
2023/02/21 16:53:01;;;;;;;6.82;3.60;;;1.10;99.90;;;;;;4953717;28;20047;-65
2023/02/21 16:55:29;;;;;;;5.47;4.45;;;1.10;99.90;;;;;;4956710;28;20063;-65
2023/02/21 16:58:01;;;;;;;4.75;3.58;;;1.10;99.90;;;;;;4957831;28;20580;-65
2023/02/21 17:00:30;;;;;;;6.57;4.18;;;1.10;99.90;;;;;;4957580;28;20095;-66
2023/02/21 17:02:57;;;;;;;5.55;3.58;;;1.10;99.90;;;;;;4958430;28;20090;-67
2023/02/21 17:05:25;;;;;;;6.95;3.13;;;1.10;99.90;;;;;;4955143;28;20050;-66
2023/02/21 17:07:54;;;;;;;4.38;3.83;;;1.10;99.90;;;;;;4957133;28;20105;-66
2023/02/21 17:10:21;;;;;;;4.95;3.70;;;1.10;99.90;;;;;;4960695;28;20134;-65
2023/02/21 17:12:48;;;;;;;3.45;2.72;;;1.10;99.90;;;;;;4963231;28;20046;-66
2023/02/21 17:15:15;;;;;;;3.53;2.50;;;1.10;99.90;;;;;;4958160;28;20070;-66
2023/02/21 17:17:42;;;;;;;4.85;2.92;;;1.10;99.90;;;;;;4961078;28;20043;-65
2023/02/21 17:20:18;;;;;;;6.70;2.95;;;1.10;99.90;;;;;;4956834;28;20499;-65